METAR Data
IDs: Format: Raw Decoded Include TAF

Data at: 2204 UTC 26 Feb 2020

KSLR 262155Z AUTO 34017G24KT 10SM SCT060 09/M05 A3039 RMK AO2 T00871048
KSLR 262135Z AUTO 34018G22KT 10SM SCT060 09/M05 A3039 RMK AO2 T00851048
KSLR 262115Z AUTO 33015G23KT 10SM SCT060 08/M05 A3039 RMK AO2 T00781049
KSLR 262055Z AUTO 33014G22KT 10SM BKN050 09/M04 A3039 RMK AO2 T00891039
KSLR 262035Z AUTO 34018G24KT 10SM SCT055 08/M05 A3039 RMK AO2 T00841047
KSLR 262015Z AUTO 32018G25KT 10SM BKN049 08/M04 A3040 RMK AO2 T00791044
KSLR 261955Z AUTO 33016G27KT 10SM BKN049 08/M04 A3041 RMK AO2 T00791044
KSLR 261935Z AUTO 32019G24KT 10SM BKN049 08/M04 A3040 RMK AO2 T00771038
KSLR 261915Z AUTO 32014G25KT 10SM BKN049 08/M03 A3041 RMK AO2 T00831031
KSLR 261855Z AUTO 32018G25KT 10SM BKN049 08/M04 A3041 RMK AO2 T00791040
KSLR 261835Z AUTO 33019G24KT 10SM BKN049 07/M04 A3041 RMK AO2 T00721037
KSLR 261815Z AUTO 33018G21KT 10SM BKN047 08/M04 A3041 RMK AO2 T00771042
KSLR 261735Z AUTO 34017G25KT 10SM SCT036 BKN043 06/M03 A3042 RMK AO2 T00641031
KSLR 261715Z AUTO 33014G20KT 10SM OVC039 05/M02 A3043 RMK AO2 T00531023
KSLR 261655Z AUTO 32017KT 10SM BKN035 06/M02 A3042 RMK AO2 T00631020
KSLR 261635Z AUTO 34019G23KT 10SM BKN035 06/M02 A3041 RMK AO2 T00581020
KSLR 261615Z AUTO 34018G29KT 10SM BKN031 05/M01 A3040 RMK AO2 T00531013
KSLR 261555Z AUTO 34023G28KT 10SM OVC029 05/M01 A3039 RMK AO2 T00481011
KSLR 261535Z AUTO 34024G31KT 10SM OVC027 05/M01 A3040 RMK AO2 T00461007
KSLR 261515Z AUTO 34024G30KT 10SM OVC025 04/M01 A3039 RMK AO2 T00401007
KSLR 261455Z AUTO 34021G30KT 10SM OVC021 04/00 A3038 RMK AO2 T00391001
KSLR 261435Z AUTO 34022G28KT 10SM OVC019 04/00 A3036 RMK AO2 T00400004
KSLR 261415Z AUTO 33019G24KT 10SM OVC019 04/01 A3035 RMK AO2 T00400009
KSLR 261355Z AUTO 33021G26KT 10SM BKN019 OVC026 04/01 A3033 RMK AO2 T00400012
KSLR 261335Z AUTO 33017G28KT 10SM BKN015 OVC024 04/02 A3032 RMK AO2 T00440022
KSLR 261315Z AUTO 32020G24KT 10SM OVC015 05/03 A3031 RMK AO2 T00450027
KSLR 261255Z AUTO 33018G23KT 10SM OVC013 05/03 A3030 RMK AO2 T00450032
KSLR 261235Z AUTO 33019KT 10SM -RA OVC013 04/03 A3028 RMK AO2 T00420030
KSLR 261215Z AUTO 33020G25KT 10SM -RA OVC013 05/03 A3027 RMK AO2 T00460031
KSLR 261155Z AUTO 33018G26KT 10SM -RA OVC015 05/03 A3025 RMK AO2 T00480032 10080 20035
KSLR 261135Z AUTO 32015KT 10SM OVC013 05/04 A3024 RMK AO2 T00450037
KSLR 261115Z AUTO 30009KT 10SM OVC015 04/03 A3023 RMK AO2 T00370030
KSLR 261055Z AUTO 30009G12KT 10SM -RA BKN013 OVC021 04/02 A3022 RMK AO2 T00350022
KSLR 261035Z AUTO 30012G18KT 10SM SCT017 BKN030 OVC090 05/02 A3021 RMK AO2 T00470016
KSLR 261015Z AUTO 29012KT 10SM SCT026 BKN044 OVC090 05/01 A3019 RMK AO2 T00450005
KSLR 260955Z AUTO 28010G14KT 10SM BKN028 BKN032 OVC090 04/00 A3019 RMK AO2 T00420000
KSLR 260935Z AUTO 28010G15KT 10SM SCT028 SCT090 04/00 A3019 RMK AO2 T00430000
KSLR 260915Z AUTO 29012KT 10SM CLR 05/00 A3019 RMK AO2 T00450000
KSLR 260855Z AUTO 29012KT 10SM CLR 05/00 A3019 RMK AO2 T00480000
KSLR 260835Z AUTO 29012G15KT 10SM CLR 05/00 A3019 RMK AO2 T00500000
KSLR 260815Z AUTO 30011KT 10SM CLR 05/00 A3019 RMK AO2 T00530000
KSLR 260755Z AUTO 30011G15KT 10SM CLR 06/00 A3018 RMK AO2 T00570000
KSLR 260735Z AUTO 30013G18KT 10SM CLR 06/00 A3018 RMK AO2 T00601001
KSLR 260715Z AUTO 31012KT 10SM CLR 07/00 A3017 RMK AO2 T00651003
KSLR 260655Z AUTO 31009KT 10SM CLR 07/00 A3017 RMK AO2 T00671002
KSLR 260635Z AUTO 30007G14KT 10SM CLR 07/00 A3017 RMK AO2 T00731005
KSLR 260615Z AUTO 30008KT 10SM CLR 08/00 A3017 RMK AO2 T00751003
KSLR 260555Z AUTO 30008KT 10SM CLR 08/00 A3016 RMK AO2 T00801001 10130 20080 401540060
KSLR 260535Z AUTO 30007G14KT 10SM SCT070 08/00 A3015 RMK AO2 T00841001
KSLR 260515Z AUTO 31008KT 10SM CLR 09/00 A3015 RMK AO2 T00860000
KSLR 260455Z AUTO 31007G14KT 10SM CLR 09/00 A3015 RMK AO2 T00900000
KSLR 260435Z AUTO 31010KT 10SM CLR 09/00 A3014 RMK AO2 T00930003
KSLR 260415Z AUTO 31011KT 10SM CLR 10/00 A3012 RMK AO2 T00970000
KSLR 260355Z AUTO 32013KT 10SM CLR 10/00 A3012 RMK AO2 T01000002
KSLR 260335Z AUTO 31012G17KT 10SM CLR 10/00 A3011 RMK AO2 T01000001
KSLR 260315Z AUTO 30008KT 10SM CLR 11/01 A3011 RMK AO2 T01050006
KSLR 260255Z AUTO 31006KT 10SM CLR 11/01 A3010 RMK AO2 T01090009
KSLR 260235Z AUTO 32009KT 10SM CLR 11/01 A3009 RMK AO2 T01130007
KSLR 260215Z AUTO 32011KT 10SM CLR 12/01 A3008 RMK AO2 T01170008
KSLR 260155Z AUTO 32012KT 10SM CLR 12/01 A3007 RMK AO2 T01160014
KSLR 260135Z AUTO 31005KT 10SM CLR 12/03 A3006 RMK AO2 T01160030
KSLR 260115Z AUTO 31006KT 10SM CLR 12/03 A3004 RMK AO2 T01150028
KSLR 260055Z AUTO 31005KT 10SM CLR 12/03 A3003 RMK AO2 T01170032
KSLR 260035Z AUTO 32005KT 10SM CLR 12/03 A3002 RMK AO2 T01230033
KSLR 260015Z AUTO 32007KT 10SM CLR 13/03 A3001 RMK AO2 T01300025
KSLR 252355Z AUTO 33007KT 10SM CLR 13/04 A3001 RMK AO2 T01300039 10154 20120
KSLR 252335Z AUTO 31006KT 10SM CLR 13/04 A3000 RMK AO2 T01320039
KSLR 252315Z AUTO 32007KT 10SM CLR 14/04 A2999 RMK AO2 T01350036
KSLR 252255Z AUTO 31010G16KT 10SM CLR 14/03 A2999 RMK AO2 T01390033
KSLR 252235Z AUTO 32008KT 10SM BKN055 14/05 A2998 RMK AO2 T01440047
KSLR 252215Z AUTO 32008KT 10SM OVC055 14/04 A2998 RMK AO2 T01350044
KSLR 252155Z AUTO 31011G17KT 10SM SCT043 OVC055 14/05 A2998 RMK AO2 T01350047
KSLR 252135Z AUTO 32009KT 10SM SCT039 BKN055 14/05 A2997 RMK AO2 T01390048
KSLR 252115Z AUTO 31010KT 10SM SCT041 15/05 A2997 RMK AO2 T01450049
KSLR 252055Z AUTO 33012G18KT 10SM BKN039 BKN046 14/05 A2997 RMK AO2 T01440048
KSLR 252035Z AUTO 32012KT 10SM BKN041 BKN046 14/05 A2996 RMK AO2 T01410053
KSLR 252015Z AUTO 32006G09KT 10SM BKN041 BKN120 14/05 A2996 RMK AO2 T01380050
KSLR 251955Z AUTO 32008KT 10SM SCT039 SCT120 14/05 A2997 RMK AO2 T01350049
KSLR 251935Z AUTO 32008KT 10SM SCT120 14/05 A2997 RMK AO2 T01400048
KSLR 251915Z AUTO 33008KT 10SM SCT120 14/05 A2998 RMK AO2 T01390052
KSLR 251855Z AUTO 32008KT 10SM SCT031 SCT120 13/05 A2999 RMK AO2 T01340053
KSLR 251835Z AUTO 34011KT 10SM SCT031 SCT090 14/05 A2999 RMK AO2 T01390048
KSLR 251815Z AUTO 33006KT 10SM BKN090 13/05 A3000 RMK AO2 T01260051
KSLR 251755Z AUTO 34008KT 10SM OVC080 12/05 A3001 RMK AO2 T01220051 10122 20060
KSLR 251735Z AUTO 34006KT 10SM OVC080 12/05 A3000 RMK AO2 T01180049
KSLR 251715Z AUTO 33009KT 10SM OVC080 11/05 A3000 RMK AO2 T01110050
KSLR 251655Z AUTO 32006KT 10SM OVC080 11/05 A3001 RMK AO2 T01060051
KSLR 251635Z AUTO 34008KT 10SM OVC080 10/05 A3000 RMK AO2 T01020050
KSLR 251615Z AUTO 33007KT 10SM OVC080 10/05 A3000 RMK AO2 T01010052
KSLR 251555Z AUTO 35009KT 10SM OVC080 10/05 A2999 RMK AO2 T01000051
KSLR 251535Z AUTO 34011KT 7SM OVC080 10/06 A2999 RMK AO2 T00970055
KSLR 251515Z AUTO 34011KT 10SM BKN080 10/06 A2998 RMK AO2 T00970055
KSLR 251455Z AUTO 34010KT 10SM SCT080 09/05 A2998 RMK AO2 T00920053
KSLR 251435Z AUTO 33009KT 10SM CLR 09/06 A2997 RMK AO2 T00870056
KSLR 251415Z AUTO 33009KT 10SM CLR 08/06 A2997 RMK AO2 T00790056
KSLR 251355Z AUTO 33008KT 10SM CLR 07/06 A2996 RMK AO2 T00700056
KSLR 251335Z AUTO 32009KT 10SM CLR 06/06 A2996 RMK AO2 T00630055
KSLR 251315Z AUTO 32007KT 10SM CLR 06/05 A2996 RMK AO2 T00600053
KSLR 251255Z AUTO 30006KT 10SM CLR 06/06 A2996 RMK AO2 T00610055
KSLR 251235Z AUTO 31007KT 10SM SCT022 06/06 A2995 RMK AO2 T00610055
KSLR 251215Z AUTO 32007KT 10SM SCT022 06/05 A2994 RMK AO2 T00610054
KSLR 251155Z AUTO 31006KT 10SM CLR 06/06 A2993 RMK AO2 T00640056 10083 20062
KSLR 251135Z AUTO 31005KT 10SM CLR 06/06 A2992 RMK AO2 T00640055
KSLR 251115Z AUTO 31004KT 10SM CLR 07/06 A2991 RMK AO2 T00650055
KSLR 251055Z AUTO 32005KT 10SM CLR 07/06 A2990 RMK AO2 T00670056
KSLR 251035Z AUTO 32006KT 10SM CLR 07/06 A2989 RMK AO2 T00700058
KSLR 251015Z AUTO 31005KT 10SM CLR 07/06 A2989 RMK AO2 T00690056